createdAt,value
2022-12-28T00:00:32.541Z,19.6
2022-12-28T00:15:32.172Z,19.6
2022-12-28T00:30:33.219Z,19.6
2022-12-28T00:45:32.605Z,19.5
2022-12-28T01:00:32.606Z,19.5
2022-12-28T01:15:32.296Z,19.5
2022-12-28T01:30:32.495Z,19.5
2022-12-28T01:45:32.174Z,19.5
2022-12-28T02:00:32.050Z,19.5
2022-12-28T02:15:32.674Z,19.5
2022-12-28T02:30:31.836Z,19.6
2022-12-28T02:45:32.731Z,19.7
2022-12-28T03:00:32.555Z,19.7
2022-12-28T03:15:32.253Z,19.7
2022-12-28T03:30:32.551Z,19.7
2022-12-28T03:45:44.661Z,19.8
2022-12-28T04:00:32.486Z,19.8
2022-12-28T04:15:32.346Z,19.8
2022-12-28T04:30:32.685Z,19.8
2022-12-28T04:45:32.774Z,19.8
2022-12-28T05:00:32.402Z,19.8
2022-12-28T05:15:32.171Z,19.8
2022-12-28T05:30:32.224Z,19.8
2022-12-28T05:45:32.358Z,19.8
2022-12-28T06:00:32.330Z,19.8
2022-12-28T06:15:31.772Z,19.8
2022-12-28T06:30:31.971Z,19.8
2022-12-28T06:45:32.793Z,19.8
2022-12-28T07:00:32.443Z,19.8
2022-12-28T07:15:33.005Z,19.8
2022-12-28T07:30:32.867Z,19.8
2022-12-28T07:45:32.500Z,19.7
2022-12-28T08:00:35.279Z,19.7
2022-12-28T08:15:32.866Z,19.7
2022-12-28T08:30:32.493Z,19.7
2022-12-28T08:45:32.453Z,19.8
2022-12-28T09:00:34.293Z,19.7
2022-12-28T09:15:32.801Z,19.8
2022-12-28T09:30:32.524Z,19.8
2022-12-28T09:45:32.765Z,19.8
2022-12-28T10:00:34.342Z,19.8
2022-12-28T10:15:32.071Z,19.8
2022-12-28T10:30:33.034Z,19.8
2022-12-28T10:45:32.564Z,19.8
2022-12-28T11:00:34.299Z,19.9
2022-12-28T11:15:32.063Z,19.9
2022-12-28T11:30:32.679Z,19.9
2022-12-28T11:45:31.933Z,19.9
2022-12-28T12:00:34.728Z,20
2022-12-28T12:15:32.523Z,20
2022-12-28T12:30:32.693Z,20
2022-12-28T12:45:31.906Z,20
2022-12-28T14:00:34.823Z,20.2
2022-12-28T14:15:39.041Z,20.2
2022-12-28T14:30:32.154Z,20.2
2022-12-28T14:45:33.243Z,20.1
2022-12-28T15:00:34.573Z,20.1
2022-12-28T15:15:32.725Z,20.1
2022-12-28T15:30:33.658Z,20.1
2022-12-28T15:45:32.211Z,20.1
2022-12-28T16:00:35.033Z,20.1
2022-12-28T16:15:32.622Z,20.1
2022-12-28T16:30:32.937Z,20.0
2022-12-28T16:45:32.116Z,20.0
2022-12-28T17:00:34.973Z,20
2022-12-28T17:15:32.037Z,20
2022-12-28T17:30:32.601Z,20
2022-12-28T17:45:31.938Z,20
2022-12-28T18:00:32.419Z,20
2022-12-28T18:15:33.221Z,20
2022-12-28T18:30:32.838Z,20.0
2022-12-28T18:45:32.510Z,20.1
2022-12-28T19:00:34.598Z,20.1
2022-12-28T19:15:32.297Z,20.1
2022-12-28T19:30:32.945Z,20.2
2022-12-28T19:45:32.512Z,20.2
2022-12-28T20:00:35.137Z,20.2
2022-12-28T20:15:32.726Z,20.3
2022-12-28T20:30:31.981Z,20.3
2022-12-28T20:45:31.938Z,20.3
2022-12-28T21:00:33.187Z,20.4
2022-12-28T21:15:32.256Z,20.4
2022-12-28T21:30:32.587Z,20.4
2022-12-28T21:45:32.800Z,20.5
2022-12-28T22:00:33.011Z,20.5
2022-12-28T22:15:31.863Z,20.5
2022-12-28T22:30:32.146Z,20.6
2022-12-28T22:45:32.003Z,20.6
2022-12-28T23:00:33.446Z,20.6
2022-12-28T23:15:31.888Z,20.7
2022-12-28T23:30:32.557Z,20.7
2022-12-28T23:45:32.458Z,20.8
